Time;durP1;ratioP1;P1;durP2;ratioP2;P2;SDS_P1;SDS_P2;PMS_P1;PMS_P2;Temp;Humidity;BMP_temperature;BMP_pressure;BME280_temperature;BME280_humidity;BME280_pressure;Samples;Min_cycle;Max_cycle;Signal;HPM_P1;HPM_P2
2021/01/20 00:00:00;;;;;;;42.75;19.08;;;;;;;;;;5018784;28;20216;-91
2021/01/20 00:02:26;;;;;;;32.05;17.13;;;;;;;;;;5021740;28;20197;-91
2021/01/20 00:04:52;;;;;;;34.70;17.65;;;;;;;;;;5018371;28;20216;-91
2021/01/20 00:07:18;;;;;;;36.38;17.13;;;;;;;;;;5020942;28;20256;-92
2021/01/20 00:09:44;;;;;;;40.75;19.48;;;;;;;;;;5017782;28;21559;-92
2021/01/20 00:12:11;;;;;;;35.15;18.38;;;;;;;;;;5021394;28;20209;-92
2021/01/20 00:14:37;;;;;;;43.33;20.17;;;;;;;;;;5021306;28;20216;-91
2021/01/20 00:17:03;;;;;;;36.10;18.43;;;;;;;;;;5015624;28;20213;-92
2021/01/20 00:19:29;;;;;;;36.30;19.77;;;;;;;;;;5019684;28;20461;-92
2021/01/20 00:21:55;;;;;;;38.25;17.95;;;;;;;;;;5017994;28;20213;-91
2021/01/20 00:24:21;;;;;;;39.25;20.70;;;;;;;;;;5021234;28;20590;-92
2021/01/20 00:26:47;;;;;;;44.63;20.27;;;;;;;;;;5018990;28;20228;-91
2021/01/20 00:29:14;;;;;;;42.78;20.45;;;;;;;;;;5024723;28;20213;-91
2021/01/20 00:31:40;;;;;;;35.80;18.67;;;;;;;;;;5021774;28;20205;-92
2021/01/20 00:34:06;;;;;;;30.83;17.20;;;;;;;;;;5026268;28;20627;-91
2021/01/20 00:36:33;;;;;;;35.70;18.13;;;;;;;;;;5024365;28;20583;-92
2021/01/20 00:38:59;;;;;;;39.75;20.50;;;;;;;;;;5021163;28;20205;-91
2021/01/20 00:41:25;;;;;;;38.65;18.80;;;;;;;;;;5022402;28;20205;-91
2021/01/20 00:43:51;;;;;;;39.50;18.50;;;;;;;;;;5018036;28;20209;-92
2021/01/20 00:46:18;;;;;;;38.95;17.88;;;;;;;;;;5022261;28;20209;-91
2021/01/20 00:48:44;;;;;;;33.60;16.42;;;;;;;;;;5018806;28;20232;-92
2021/01/20 00:51:10;;;;;;;31.20;17.15;;;;;;;;;;5021938;28;20212;-92
2021/01/20 00:53:37;;;;;;;35.17;18.25;;;;;;;;;;5022241;28;20200;-91
2021/01/20 00:56:05;;;;;;;35.58;18.15;;;;;;;;;;5019493;28;20240;-92
2021/01/20 00:58:31;;;;;;;37.28;17.40;;;;;;;;;;5023454;28;20200;-93
2021/01/20 01:00:57;;;;;;;36.95;19.35;;;;;;;;;;5020497;28;20218;-92
2021/01/20 01:03:24;;;;;;;38.10;18.38;;;;;;;;;;5024252;28;20205;-92
2021/01/20 01:05:50;;;;;;;36.35;20.17;;;;;;;;;;5022289;28;20205;-92
2021/01/20 01:08:16;;;;;;;37.80;20.17;;;;;;;;;;5024461;28;20224;-92
2021/01/20 01:10:42;;;;;;;38.60;18.65;;;;;;;;;;5024405;28;20201;-95
2021/01/20 01:13:08;;;;;;;38.72;20.98;;;;;;;;;;5036595;28;20188;-91
2021/01/20 01:15:34;;;;;;;40.90;20.60;;;;;;;;;;5035367;28;20217;-93
2021/01/20 01:18:00;;;;;;;47.08;22.10;;;;;;;;;;5030598;28;20220;-92
2021/01/20 01:20:27;;;;;;;28.55;15.13;;;;;;;;;;5025426;28;20743;-92
2021/01/20 01:22:57;;;;;;;29.73;15.60;;;;;;;;;;5018431;28;20214;-92
2021/01/20 01:25:23;;;;;;;32.15;16.85;;;;;;;;;;5023275;28;20210;-92
2021/01/20 01:27:49;;;;;;;31.25;17.65;;;;;;;;;;5021302;28;20229;-92
2021/01/20 01:30:15;;;;;;;31.45;16.95;;;;;;;;;;5023086;28;20236;-92
2021/01/20 01:32:41;;;;;;;33.47;16.65;;;;;;;;;;5023858;28;20210;-91
2021/01/20 01:35:07;;;;;;;32.03;16.80;;;;;;;;;;5019929;28;20217;-92
2021/01/20 01:37:34;;;;;;;36.05;17.42;;;;;;;;;;5021612;28;20201;-92
2021/01/20 01:40:00;;;;;;;33.25;17.60;;;;;;;;;;5019193;28;20227;-91
2021/01/20 01:42:27;;;;;;;37.08;18.92;;;;;;;;;;5017107;28;20217;-91
2021/01/20 01:44:53;;;;;;;40.05;16.95;;;;;;;;;;5019495;28;20205;-92
2021/01/20 01:47:19;;;;;;;30.63;17.08;;;;;;;;;;5022495;28;20229;-93
2021/01/20 01:49:45;;;;;;;36.47;17.10;;;;;;;;;;5020832;28;20216;-92
2021/01/20 01:52:11;;;;;;;34.42;17.42;;;;;;;;;;5018525;28;20256;-93
2021/01/20 01:54:38;;;;;;;44.05;20.08;;;;;;;;;;5018562;28;20200;-92
2021/01/20 01:57:05;;;;;;;35.47;18.85;;;;;;;;;;5016697;28;20221;-92
2021/01/20 01:59:31;;;;;;;40.60;19.42;;;;;;;;;;5018592;28;20661;-93
2021/01/20 02:01:57;;;;;;;49.22;20.63;;;;;;;;;;5015498;28;20219;-91
2021/01/20 02:04:23;;;;;;;47.05;20.27;;;;;;;;;;5018874;28;20208;-93
2021/01/20 02:06:50;;;;;;;47.53;22.77;;;;;;;;;;5018626;28;20865;-92
2021/01/20 02:09:16;;;;;;;50.92;23.70;;;;;;;;;;5016940;28;20208;-92
2021/01/20 02:11:51;;;;;;;42.53;22.27;;;;;;;;;;5018940;28;20231;-91
2021/01/20 02:14:22;;;;;;;42.00;22.48;;;;;;;;;;5020042;28;20205;-91
2021/01/20 02:16:59;;;;;;;45.15;22.50;;;;;;;;;;5022290;28;20202;-92
2021/01/20 02:19:30;;;;;;;48.75;22.85;;;;;;;;;;5019773;28;20209;-92
2021/01/20 02:22:08;;;;;;;42.05;20.88;;;;;;;;;;5022778;28;20375;-92
2021/01/20 02:24:41;;;;;;;40.50;20.50;;;;;;;;;;5019212;28;20308;-92
2021/01/20 02:27:11;;;;;;;44.38;23.15;;;;;;;;;;5021218;28;20700;-92
2021/01/20 02:29:42;;;;;;;42.15;20.42;;;;;;;;;;5018084;28;20229;-92
2021/01/20 02:32:10;;;;;;;54.08;23.95;;;;;;;;;;5022756;28;20201;-91
2021/01/20 02:34:36;;;;;;;43.28;21.52;;;;;;;;;;5020363;28;20205;-91
2021/01/20 02:37:03;;;;;;;51.40;24.52;;;;;;;;;;5022861;28;20208;-92
2021/01/20 02:39:29;;;;;;;50.25;22.75;;;;;;;;;;5018675;28;20904;-91
2021/01/20 02:42:01;;;;;;;44.78;23.38;;;;;;;;;;5021683;28;20216;-92
2021/01/20 02:44:27;;;;;;;45.17;21.92;;;;;;;;;;5024437;28;20205;-92
2021/01/20 02:46:53;;;;;;;44.25;21.58;;;;;;;;;;5019874;28;20211;-92
2021/01/20 02:49:20;;;;;;;47.38;22.88;;;;;;;;;;5021911;28;20205;-92
2021/01/20 02:51:53;;;;;;;48.22;22.98;;;;;;;;;;5015793;28;20208;-92
2021/01/20 02:54:20;;;;;;;48.97;23.75;;;;;;;;;;5020131;28;20196;-92
2021/01/20 02:56:47;;;;;;;49.90;25.10;;;;;;;;;;5018502;28;20219;-93
2021/01/20 02:59:14;;;;;;;44.38;22.67;;;;;;;;;;5022077;28;20235;-91
2021/01/20 03:01:43;;;;;;;44.10;21.00;;;;;;;;;;5017281;28;20216;-92
2021/01/20 03:04:09;;;;;;;38.63;20.55;;;;;;;;;;5020040;28;20689;-92
2021/01/20 03:06:37;;;;;;;48.72;21.85;;;;;;;;;;5020309;28;20204;-92
2021/01/20 03:09:03;;;;;;;39.85;19.75;;;;;;;;;;5020683;28;20235;-91
2021/01/20 03:11:29;;;;;;;47.88;22.85;;;;;;;;;;5020853;28;20268;-92
2021/01/20 03:13:55;;;;;;;40.90;20.05;;;;;;;;;;5018994;28;20207;-93
2021/01/20 03:16:23;;;;;;;42.75;19.85;;;;;;;;;;5019813;28;20205;-91
2021/01/20 03:18:49;;;;;;;42.40;20.05;;;;;;;;;;5016279;28;20221;-92
2021/01/20 03:21:15;;;;;;;40.85;20.77;;;;;;;;;;5021245;28;20201;-92
2021/01/20 03:23:42;;;;;;;47.55;21.63;;;;;;;;;;5018404;28;20213;-92
2021/01/20 03:26:08;;;;;;;43.67;20.33;;;;;;;;;;5021963;28;20206;-92
2021/01/20 03:28:34;;;;;;;44.03;20.92;;;;;;;;;;5022371;28;20279;-93
2021/01/20 03:31:00;;;;;;;45.40;20.67;;;;;;;;;;5016978;28;20228;-92
2021/01/20 03:33:26;;;;;;;41.50;20.92;;;;;;;;;;5020273;28;20204;-93
2021/01/20 03:35:52;;;;;;;42.55;22.05;;;;;;;;;;5018285;28;20213;-92
2021/01/20 03:38:18;;;;;;;40.63;21.58;;;;;;;;;;5021548;28;20290;-92
2021/01/20 03:40:45;;;;;;;45.35;21.52;;;;;;;;;;5018869;28;20209;-92
2021/01/20 03:43:11;;;;;;;43.95;20.95;;;;;;;;;;5021083;28;20209;-92
2021/01/20 03:45:37;;;;;;;30.45;17.35;;;;;;;;;;5018717;28;20201;-92
2021/01/20 03:48:04;;;;;;;38.25;18.50;;;;;;;;;;5021056;28;20225;-92
2021/01/20 03:50:30;;;;;;;45.08;21.00;;;;;;;;;;5021284;28;20213;-93
2021/01/20 03:52:56;;;;;;;43.05;19.40;;;;;;;;;;5018602;28;20209;-92
2021/01/20 03:55:22;;;;;;;40.80;19.58;;;;;;;;;;5021092;28;20208;-92
2021/01/20 03:57:50;;;;;;;36.97;18.90;;;;;;;;;;5016573;28;20845;-92
2021/01/20 04:00:17;;;;;;;52.55;21.83;;;;;;;;;;5021169;28;20216;-92
2021/01/20 04:02:43;;;;;;;43.00;21.25;;;;;;;;;;5021637;28;20205;-93
2021/01/20 04:05:09;;;;;;;49.33;21.70;;;;;;;;;;5025691;28;20212;-92
2021/01/20 04:07:35;;;;;;;44.33;22.60;;;;;;;;;;5021880;28;20232;-92
2021/01/20 04:10:02;;;;;;;50.00;23.67;;;;;;;;;;5017766;28;20202;-91
2021/01/20 04:12:28;;;;;;;48.03;23.63;;;;;;;;;;5025557;28;20185;-92
2021/01/20 04:14:55;;;;;;;39.03;21.05;;;;;;;;;;5036602;28;20190;-92
2021/01/20 04:17:21;;;;;;;47.28;21.30;;;;;;;;;;5035176;28;20209;-92
2021/01/20 04:19:47;;;;;;;42.47;20.75;;;;;;;;;;5029395;28;20209;-92
2021/01/20 04:22:13;;;;;;;44.35;20.20;;;;;;;;;;5033402;28;20202;-92
2021/01/20 04:24:39;;;;;;;37.10;20.80;;;;;;;;;;5023658;28;20212;-92
2021/01/20 04:27:05;;;;;;;43.90;20.93;;;;;;;;;;5024217;28;20270;-92
2021/01/20 04:29:31;;;;;;;38.88;19.20;;;;;;;;;;5021591;28;20879;-93
2021/01/20 04:31:58;;;;;;;34.05;15.77;;;;;;;;;;5021845;28;20242;-92
2021/01/20 04:34:24;;;;;;;34.92;17.40;;;;;;;;;;5023947;28;20224;-93
2021/01/20 04:36:50;;;;;;;41.90;17.60;;;;;;;;;;5021244;28;20209;-93
2021/01/20 04:39:16;;;;;;;42.17;20.52;;;;;;;;;;5024672;28;20232;-92
2021/01/20 04:41:42;;;;;;;31.63;17.77;;;;;;;;;;5021071;28;20647;-92
2021/01/20 04:44:09;;;;;;;41.38;19.73;;;;;;;;;;5024268;28;20205;-94
2021/01/20 04:46:35;;;;;;;40.85;20.42;;;;;;;;;;5021515;28;20213;-92
2021/01/20 04:49:02;;;;;;;44.20;21.58;;;;;;;;;;5023545;28;20240;-92
2021/01/20 04:51:30;;;;;;;44.08;22.38;;;;;;;;;;5024270;28;20212;-92
2021/01/20 04:53:57;;;;;;;46.50;22.35;;;;;;;;;;5021913;28;20201;-92
2021/01/20 04:56:23;;;;;;;39.28;20.50;;;;;;;;;;5028343;28;20201;-91
2021/01/20 04:58:51;;;;;;;47.17;23.73;;;;;;;;;;5021948;28;20209;-91
2021/01/20 05:01:18;;;;;;;35.17;18.52;;;;;;;;;;5024163;28;20996;-92
2021/01/20 05:03:44;;;;;;;42.47;20.80;;;;;;;;;;5021277;28;20215;-93
2021/01/20 05:06:11;;;;;;;50.17;20.83;;;;;;;;;;5024048;28;20210;-91
2021/01/20 05:08:37;;;;;;;34.40;18.40;;;;;;;;;;5020276;28;20236;-92
2021/01/20 05:11:03;;;;;;;43.85;19.63;;;;;;;;;;5021686;28;20209;-92
2021/01/20 05:13:30;;;;;;;42.97;19.60;;;;;;;;;;5019890;28;20193;-91
2021/01/20 05:15:57;;;;;;;44.05;20.60;;;;;;;;;;5021931;28;20209;-92
2021/01/20 05:18:23;;;;;;;40.13;21.10;;;;;;;;;;5022515;28;20227;-92
2021/01/20 05:20:49;;;;;;;45.40;20.40;;;;;;;;;;5020406;28;20216;-92
2021/01/20 05:23:16;;;;;;;37.40;19.45;;;;;;;;;;5023222;28;20653;-92
2021/01/20 05:25:43;;;;;;;40.85;18.80;;;;;;;;;;5019203;28;20217;-92
2021/01/20 05:28:16;;;;;;;50.83;19.98;;;;;;;;;;5020142;28;20224;-92
2021/01/20 05:30:46;;;;;;;44.75;20.00;;;;;;;;;;5017409;28;20620;-92
2021/01/20 05:33:14;;;;;;;41.20;19.95;;;;;;;;;;5020827;28;20213;-91
2021/01/20 05:35:40;;;;;;;34.05;17.63;;;;;;;;;;5023141;28;20204;-92
2021/01/20 05:38:06;;;;;;;38.00;18.95;;;;;;;;;;5019649;28;20214;-92
2021/01/20 05:40:34;;;;;;;37.88;17.88;;;;;;;;;;5023486;28;20210;-92
2021/01/20 05:43:00;;;;;;;37.28;18.90;;;;;;;;;;5019730;28;20204;-91
2021/01/20 05:45:27;;;;;;;42.20;19.80;;;;;;;;;;5022783;28;20263;-93
2021/01/20 05:48:06;;;;;;;41.70;20.55;;;;;;;;;;5020472;28;20235;-92
2021/01/20 05:50:32;;;;;;;48.92;22.05;;;;;;;;;;5021631;28;20208;-92
2021/01/20 05:53:02;;;;;;;43.17;22.73;;;;;;;;;;5019580;28;20215;-92
2021/01/20 05:55:28;;;;;;;42.85;22.95;;;;;;;;;;5022499;28;20204;-93
2021/01/20 05:57:55;;;;;;;48.22;21.15;;;;;;;;;;5020226;28;20212;-94
2021/01/20 06:00:21;;;;;;;43.75;22.35;;;;;;;;;;5018853;28;20201;-94
2021/01/20 06:02:48;;;;;;;49.90;23.10;;;;;;;;;;5022746;28;20201;-94
2021/01/20 06:05:15;;;;;;;53.17;23.25;;;;;;;;;;5018088;28;20215;-95
2021/01/20 06:07:42;;;;;;;53.58;22.40;;;;;;;;;;5020408;28;20243;-95
2021/01/20 06:10:08;;;;;;;60.78;25.55;;;;;;;;;;5017521;28;20875;-95
2021/01/20 06:12:35;;;;;;;56.22;27.88;;;;;;;;;;5003798;28;20199;-93
2021/01/20 06:15:02;;;;;;;40.80;22.30;;;;;;;;;;5021502;28;20212;-95
2021/01/20 06:17:30;;;;;;;59.28;24.60;;;;;;;;;;5022760;28;20221;-94
2021/01/20 06:19:58;;;;;;;52.80;28.00;;;;;;;;;;5023305;28;20201;-94
2021/01/20 06:22:26;;;;;;;53.47;26.33;;;;;;;;;;5020079;28;20209;-94
2021/01/20 06:24:55;;;;;;;51.50;25.85;;;;;;;;;;5022373;28;20200;-95
2021/01/20 06:27:25;;;;;;;50.58;25.63;;;;;;;;;;5019382;28;20224;-95
2021/01/20 06:29:54;;;;;;;38.45;21.80;;;;;;;;;;5023151;28;20240;-94
2021/01/20 06:32:22;;;;;;;49.85;26.00;;;;;;;;;;5018495;28;20243;-94
2021/01/20 06:34:49;;;;;;;55.13;29.33;;;;;;;;;;5021039;28;20216;-95
2021/01/20 06:37:30;;;;;;;66.28;33.83;;;;;;;;;;5017648;28;20611;-93
2021/01/20 06:39:56;;;;;;;57.13;29.75;;;;;;;;;;5014648;28;20201;-93
2021/01/20 06:42:29;;;;;;;56.20;29.55;;;;;;;;;;5023390;28;20207;-92
2021/01/20 06:45:19;;;;;;;56.17;30.17;;;;;;;;;;5024788;28;20203;-94
2021/01/20 06:48:06;;;;;;;177.35;81.07;;;;;;;;;;5001605;28;20240;-91
2021/01/20 06:50:33;;;;;;;205.25;85.05;;;;;;;;;;5023949;28;20228;-92
2021/01/20 06:53:02;;;;;;;116.30;54.53;;;;;;;;;;5023856;28;20221;-94
2021/01/20 06:55:33;;;;;;;188.15;85.25;;;;;;;;;;5022364;28;20209;-93
2021/01/20 06:58:16;;;;;;;226.25;104.72;;;;;;;;;;5024978;28;20267;-93
2021/01/20 07:00:42;;;;;;;222.93;107.78;;;;;;;;;;5019582;28;20224;-93
2021/01/20 07:03:09;;;;;;;222.32;97.13;;;;;;;;;;5028323;28;20204;-93
2021/01/20 07:05:39;;;;;;;256.48;119.25;;;;;;;;;;5026209;28;20204;-93
2021/01/20 07:08:09;;;;;;;200.07;92.28;;;;;;;;;;5035224;28;20205;-94
2021/01/20 07:11:05;;;;;;;227.18;103.60;;;;;;;;;;5025430;28;20203;-93
2021/01/20 07:13:31;;;;;;;185.32;89.45;;;;;;;;;;5033567;28;20210;-93
2021/01/20 07:15:58;;;;;;;135.07;63.13;;;;;;;;;;5024617;28;20216;-93
2021/01/20 07:18:25;;;;;;;118.28;56.83;;;;;;;;;;5023009;28;20208;-93
2021/01/20 07:20:52;;;;;;;109.40;53.63;;;;;;;;;;5022009;28;20214;-94
2021/01/20 07:23:18;;;;;;;108.35;50.53;;;;;;;;;;5023465;28;20238;-95
2021/01/20 07:25:45;;;;;;;96.40;46.15;;;;;;;;;;5025871;28;20197;-93
2021/01/20 07:28:11;;;;;;;100.05;47.75;;;;;;;;;;5019795;28;20242;-94
2021/01/20 07:30:37;;;;;;;103.57;49.10;;;;;;;;;;5023566;28;20245;-93
2021/01/20 07:33:14;;;;;;;104.05;50.25;;;;;;;;;;5024112;28;20218;-94
2021/01/20 07:35:41;;;;;;;91.95;46.13;;;;;;;;;;5024547;28;20698;-93
2021/01/20 07:38:07;;;;;;;94.97;48.83;;;;;;;;;;5026631;28;20245;-95
2021/01/20 07:40:34;;;;;;;101.10;49.03;;;;;;;;;;5028823;28;20211;-94
2021/01/20 07:43:00;;;;;;;102.03;48.80;;;;;;;;;;5027811;28;20209;-95
2021/01/20 07:45:37;;;;;;;95.63;51.08;;;;;;;;;;5025012;28;20211;-94
2021/01/20 07:48:04;;;;;;;100.45;48.00;;;;;;;;;;5002474;28;20246;-95
2021/01/20 07:50:37;;;;;;;100.97;52.70;;;;;;;;;;5023674;28;20208;-94
2021/01/20 07:53:05;;;;;;;102.38;50.40;;;;;;;;;;5026485;28;20208;-95
2021/01/20 07:55:31;;;;;;;119.30;57.42;;;;;;;;;;5024550;28;20273;-95
2021/01/20 07:57:58;;;;;;;118.03;56.75;;;;;;;;;;5027622;28;20203;-95
2021/01/20 08:00:24;;;;;;;116.35;54.35;;;;;;;;;;5016136;28;20221;-95
2021/01/20 08:02:51;;;;;;;105.00;50.88;;;;;;;;;;5028027;28;20207;-96
2021/01/20 08:05:17;;;;;;;106.35;51.47;;;;;;;;;;5026286;28;20233;-95
2021/01/20 08:07:43;;;;;;;97.18;50.20;;;;;;;;;;5025786;28;20228;-94
2021/01/20 08:10:19;;;;;;;107.30;54.22;;;;;;;;;;5027692;28;20217;-94
2021/01/20 08:12:46;;;;;;;101.00;52.90;;;;;;;;;;5021280;28;20212;-93
2021/01/20 08:15:13;;;;;;;109.40;54.10;;;;;;;;;;5025815;28;20207;-95
2021/01/20 08:17:40;;;;;;;102.75;50.33;;;;;;;;;;5022811;28;20223;-92
2021/01/20 08:20:07;;;;;;;100.80;50.53;;;;;;;;;;5025763;28;20209;-95
2021/01/20 08:22:33;;;;;;;100.38;50.10;;;;;;;;;;5023201;28;20201;-95
2021/01/20 08:24:59;;;;;;;102.97;48.55;;;;;;;;;;5025248;28;20205;-94
2021/01/20 08:27:26;;;;;;;86.60;47.70;;;;;;;;;;5020400;28;20846;-95
2021/01/20 08:29:53;;;;;;;84.47;45.92;;;;;;;;;;5023602;28;20233;-96
2021/01/20 08:32:20;;;;;;;89.57;47.78;;;;;;;;;;5024964;28;20213;-93
2021/01/20 08:34:46;;;;;;;102.43;50.50;;;;;;;;;;5022804;28;20232;-94
2021/01/20 08:37:13;;;;;;;98.20;50.55;;;;;;;;;;5025432;28;20216;-94
2021/01/20 08:39:52;;;;;;;102.22;51.13;;;;;;;;;;5021404;28;20273;-94
2021/01/20 08:42:21;;;;;;;92.25;47.35;;;;;;;;;;5024802;28;20232;-95
2021/01/20 08:45:08;;;;;;;94.75;51.05;;;;;;;;;;5022066;28;20240;-94
2021/01/20 08:47:35;;;;;;;82.68;44.25;;;;;;;;;;4991034;28;20647;-94
2021/01/20 08:50:02;;;;;;;83.57;45.92;;;;;;;;;;5021357;28;20221;-95
2021/01/20 08:52:41;;;;;;;74.63;40.72;;;;;;;;;;5023928;28;20224;-95
2021/01/20 08:55:15;;;;;;;80.55;41.72;;;;;;;;;;5022817;28;20205;-94
2021/01/20 08:57:43;;;;;;;70.88;39.45;;;;;;;;;;5025493;28;20200;-95
2021/01/20 09:00:18;;;;;;;78.78;40.45;;;;;;;;;;5027297;28;20224;-96
2021/01/20 09:02:46;;;;;;;69.60;38.13;;;;;;;;;;5026348;28;20212;-95
2021/01/20 09:05:13;;;;;;;71.05;39.40;;;;;;;;;;5026996;28;20306;-95
2021/01/20 09:07:40;;;;;;;71.72;41.08;;;;;;;;;;5023948;28;20239;-96
2021/01/20 09:10:07;;;;;;;76.38;38.38;;;;;;;;;;5025524;28;20227;-95
2021/01/20 09:12:34;;;;;;;68.68;39.00;;;;;;;;;;5022322;28;20254;-95
2021/01/20 09:15:01;;;;;;;66.53;38.88;;;;;;;;;;5026738;28;20204;-95
2021/01/20 09:17:27;;;;;;;74.57;41.08;;;;;;;;;;5024877;28;20220;-96
2021/01/20 09:19:54;;;;;;;86.30;43.25;;;;;;;;;;5025616;28;20220;-96
2021/01/20 09:22:20;;;;;;;67.55;40.70;;;;;;;;;;5026452;28;20204;-96
2021/01/20 09:24:46;;;;;;;74.70;39.88;;;;;;;;;;5024345;28;20205;-95
2021/01/20 09:29:55;;;;;;;69.20;38.58;;;;;;;;;;5017382;28;20220;-96
2021/01/20 09:32:21;;;;;;;64.45;37.95;;;;;;;;;;5030324;28;20633;-96
2021/01/20 09:34:48;;;;;;;54.42;30.83;;;;;;;;;;5030027;28;20208;-96
2021/01/20 09:37:15;;;;;;;59.67;33.63;;;;;;;;;;5030915;28;20230;-96
2021/01/20 09:42:32;;;;;;;58.55;32.15;;;;;;;;;;5091367;23;20232;-96
2021/01/20 09:45:01;;;;;;;69.25;37.38;;;;;;;;;;5016734;28;20249;-96
2021/01/20 09:47:32;;;;;;;59.65;35.55;;;;;;;;;;5020861;28;20193;-96
2021/01/20 09:49:59;;;;;;;57.92;32.17;;;;;;;;;;5026147;28;20278;-96
2021/01/20 09:52:30;;;;;;;59.60;35.17;;;;;;;;;;5015370;28;20189;-96
2021/01/20 09:55:01;;;;;;;62.92;34.90;;;;;;;;;;5019831;28;20197;-96
2021/01/20 09:57:27;;;;;;;65.15;36.25;;;;;;;;;;5013229;28;20217;-96
2021/01/20 09:59:54;;;;;;;64.88;38.38;;;;;;;;;;5008076;28;20269;-96
2021/01/20 10:02:20;;;;;;;64.13;36.92;;;;;;;;;;5008798;28;20265;-96
2021/01/20 10:04:47;;;;;;;67.30;36.97;;;;;;;;;;5002608;28;20202;-96
2021/01/20 10:07:33;;;;;;;71.45;41.17;;;;;;;;;;5005206;28;20206;-96
2021/01/20 10:10:04;;;;;;;69.57;36.67;;;;;;;;;;5004608;28;20206;-96
2021/01/20 10:12:30;;;;;;;63.42;36.47;;;;;;;;;;5005923;28;20273;-96
2021/01/20 10:15:17;;;;;;;67.63;38.75;;;;;;;;;;5001848;28;20286;-96
2021/01/20 10:18:10;;;;;;;71.63;42.55;;;;;;;;;;5007896;28;20193;-96
2021/01/20 10:20:36;;;;;;;67.82;40.85;;;;;;;;;;5010819;28;20203;-96
2021/01/20 10:23:39;;;;;;;71.18;42.65;;;;;;;;;;4999542;28;20292;-96
2021/01/20 10:32:25;;;;;;;69.93;42.13;;;;;;;;;;5007841;28;20221;-96
2021/01/20 10:34:57;;;;;;;71.07;40.55;;;;;;;;;;5051820;23;20237;-96
2021/01/20 10:46:10;;;;;;;60.25;34.50;;;;;;;;;;5036938;23;20243;-96
2021/01/20 10:57:51;;;;;;;66.78;39.53;;;;;;;;;;5056609;23;20241;-96
2021/01/20 11:11:39;;;;;;;44.85;28.42;;;;;;;;;;5242581;23;20751;-96
2021/01/20 11:17:20;;;;;;;34.65;22.58;;;;;;;;;;5291683;23;20290;-96
2021/01/20 14:00:12;;;;;;;191.87;98.20;;;;;;;;;;5027062;28;20481;-96
2021/01/20 14:05:25;;;;;;;121.60;71.17;;;;;;;;;;5027133;28;20441;-96
2021/01/20 14:08:00;;;;;;;108.03;65.93;;;;;;;;;;5035675;28;20449;-96
2021/01/20 14:29:37;;;;;;;55.93;36.70;;;;;;;;;;5430966;23;20496;-96
2021/01/20 14:32:05;;;;;;;49.30;32.67;;;;;;;;;;5080469;23;20488;-96
2021/01/20 14:34:33;;;;;;;34.27;23.93;;;;;;;;;;5029246;28;20449;-96
2021/01/20 14:37:02;;;;;;;33.80;21.87;;;;;;;;;;5025413;28;20478;-96
2021/01/20 14:39:28;;;;;;;39.47;22.90;;;;;;;;;;5019814;28;20455;-96
2021/01/20 14:44:27;;;;;;;35.33;23.70;;;;;;;;;;5012297;28;20499;-96
2021/01/20 15:00:39;;;;;;;29.60;21.20;;;;;;;;;;5058846;28;20447;-96
2021/01/20 15:05:50;;;;;;;32.87;22.40;;;;;;;;;;5281956;22;20486;-96
2021/01/20 15:23:05;;;;;;;32.65;17.45;;;;;;;;;;5726562;23;20478;-96
2021/01/20 15:25:31;;;;;;;35.08;21.45;;;;;;;;;;5003457;28;20264;-96
2021/01/20 15:28:03;;;;;;;49.70;30.27;;;;;;;;;;5008838;28;20204;-96
2021/01/20 15:30:30;;;;;;;43.47;28.27;;;;;;;;;;5006938;28;20196;-96
2021/01/20 15:32:58;;;;;;;46.03;27.88;;;;;;;;;;5004267;28;20204;-96
2021/01/20 15:35:24;;;;;;;50.38;29.92;;;;;;;;;;4999813;28;20216;-96
2021/01/20 15:37:53;;;;;;;55.13;33.35;;;;;;;;;;5002051;28;20219;-96
2021/01/20 15:40:20;;;;;;;73.40;43.15;;;;;;;;;;5004584;28;20288;-96
2021/01/20 15:42:47;;;;;;;83.65;47.70;;;;;;;;;;5007919;28;20213;-96
2021/01/20 15:45:13;;;;;;;94.68;48.30;;;;;;;;;;5002821;28;20730;-96
2021/01/20 15:47:39;;;;;;;111.03;56.75;;;;;;;;;;5000102;28;20257;-96
2021/01/20 15:50:08;;;;;;;97.60;51.35;;;;;;;;;;4991693;28;20217;-96
2021/01/20 15:52:40;;;;;;;75.07;42.50;;;;;;;;;;5012388;28;20195;-95
2021/01/20 15:55:11;;;;;;;54.42;34.13;;;;;;;;;;5012606;28;20237;-96
2021/01/20 15:57:53;;;;;;;70.80;43.80;;;;;;;;;;5009295;28;20183;-96
2021/01/20 16:00:21;;;;;;;98.45;52.75;;;;;;;;;;5004214;28;20702;-95
2021/01/20 16:02:51;;;;;;;90.30;52.47;;;;;;;;;;5008881;28;20212;-96
2021/01/20 16:10:28;;;;;;;64.50;35.55;;;;;;;;;;4968743;28;20302;-96
2021/01/20 16:12:55;;;;;;;49.33;31.65;;;;;;;;;;4965573;29;20256;-96
2021/01/20 16:15:23;;;;;;;47.42;28.67;;;;;;;;;;4969351;29;20224;-96
2021/01/20 16:17:57;;;;;;;75.13;43.63;;;;;;;;;;4971759;28;20207;-96
2021/01/20 16:20:23;;;;;;;92.22;50.50;;;;;;;;;;4971524;29;20274;-96
2021/01/20 16:22:50;;;;;;;109.63;56.63;;;;;;;;;;4973672;28;20200;-96
2021/01/20 16:25:38;;;;;;;76.20;47.28;;;;;;;;;;4974558;28;20198;-96
2021/01/20 16:28:22;;;;;;;59.47;34.38;;;;;;;;;;4967539;29;20219;-96
2021/01/20 16:30:50;;;;;;;49.00;29.75;;;;;;;;;;4967299;28;20194;-96
2021/01/20 16:33:16;;;;;;;59.97;36.30;;;;;;;;;;4969785;28;20219;-96
2021/01/20 16:35:42;;;;;;;65.03;36.25;;;;;;;;;;4969752;28;20208;-96
2021/01/20 16:38:13;;;;;;;67.35;37.72;;;;;;;;;;4966797;28;20224;-96
2021/01/20 16:40:40;;;;;;;78.70;41.15;;;;;;;;;;4954100;29;20200;-96
2021/01/20 16:43:11;;;;;;;58.03;33.10;;;;;;;;;;4966838;29;20199;-96
2021/01/20 16:45:49;;;;;;;48.53;27.23;;;;;;;;;;4979991;28;20188;-96
2021/01/20 16:51:38;;;;;;;40.33;24.02;;;;;;;;;;4918544;29;20195;-96
2021/01/20 16:54:21;;;;;;;31.23;20.00;;;;;;;;;;4919815;29;20201;-96
2021/01/20 16:56:49;;;;;;;30.75;18.52;;;;;;;;;;4912473;29;20224;-96
2021/01/20 17:02:21;;;;;;;29.25;16.70;;;;;;;;;;4911722;29;20339;-96
2021/01/20 17:04:47;;;;;;;25.52;16.60;;;;;;;;;;4917705;29;20201;-96
2021/01/20 17:07:14;;;;;;;36.80;21.35;;;;;;;;;;4912743;29;20198;-96
2021/01/20 17:09:55;;;;;;;31.92;20.55;;;;;;;;;;4924130;29;20308;-96
2021/01/20 17:12:22;;;;;;;29.52;18.45;;;;;;;;;;4931909;29;20279;-96
2021/01/20 17:14:51;;;;;;;37.17;22.45;;;;;;;;;;4929541;29;20273;-96
2021/01/20 17:17:27;;;;;;;40.25;24.83;;;;;;;;;;4936760;29;20200;-96
2021/01/20 17:20:05;;;;;;;44.35;24.83;;;;;;;;;;4941969;29;20204;-96
2021/01/20 17:22:32;;;;;;;46.75;25.45;;;;;;;;;;4934880;29;20200;-96
2021/01/20 17:25:00;;;;;;;49.75;26.88;;;;;;;;;;4934178;29;20205;-96
2021/01/20 17:27:39;;;;;;;52.55;26.73;;;;;;;;;;4942782;29;20219;-96
2021/01/20 17:30:11;;;;;;;45.72;23.58;;;;;;;;;;4984003;28;20237;-96
2021/01/20 17:32:56;;;;;;;47.92;25.48;;;;;;;;;;4993620;28;20217;-96
2021/01/20 17:38:05;;;;;;;33.28;18.40;;;;;;;;;;4999101;28;20286;-96
2021/01/20 17:40:31;;;;;;;40.92;21.98;;;;;;;;;;4996647;28;20221;-96
2021/01/20 17:43:03;;;;;;;44.33;21.95;;;;;;;;;;4984229;28;20224;-96
2021/01/20 17:45:29;;;;;;;43.17;21.85;;;;;;;;;;4984925;28;20222;-96
2021/01/20 17:47:56;;;;;;;43.85;23.00;;;;;;;;;;4980512;28;20238;-96
2021/01/20 17:50:22;;;;;;;39.65;22.55;;;;;;;;;;4979337;28;20198;-96
2021/01/20 17:52:48;;;;;;;41.90;24.48;;;;;;;;;;4982702;28;20261;-95
2021/01/20 17:55:24;;;;;;;43.90;23.10;;;;;;;;;;4983806;28;20230;-96
2021/01/20 17:57:50;;;;;;;47.47;25.63;;;;;;;;;;4975857;28;20256;-96
2021/01/20 18:00:30;;;;;;;41.58;25.05;;;;;;;;;;4981691;28;20217;-96
2021/01/20 18:02:57;;;;;;;73.90;41.05;;;;;;;;;;4982889;28;20202;-96
2021/01/20 18:05:26;;;;;;;73.97;39.72;;;;;;;;;;4981744;28;20214;-95
2021/01/20 18:07:52;;;;;;;64.22;32.58;;;;;;;;;;4967559;28;20229;-96
2021/01/20 18:10:19;;;;;;;60.20;31.95;;;;;;;;;;4960486;28;20758;-96
2021/01/20 18:15:55;;;;;;;43.53;25.77;;;;;;;;;;4987904;28;20215;-96
2021/01/20 18:18:22;;;;;;;37.58;21.42;;;;;;;;;;4965903;28;20210;-96
2021/01/20 18:20:50;;;;;;;33.58;20.85;;;;;;;;;;4981679;28;20224;-96
2021/01/20 18:23:16;;;;;;;37.05;22.27;;;;;;;;;;4983402;28;20202;-96
2021/01/20 18:25:42;;;;;;;35.60;22.75;;;;;;;;;;4978986;28;20217;-96
2021/01/20 18:28:08;;;;;;;37.35;23.73;;;;;;;;;;4982836;28;20221;-96
2021/01/20 18:30:35;;;;;;;35.53;21.13;;;;;;;;;;4983418;28;20286;-95
2021/01/20 18:33:02;;;;;;;33.17;19.23;;;;;;;;;;4975005;28;20210;-96
2021/01/20 18:35:29;;;;;;;28.58;17.83;;;;;;;;;;4975307;28;20221;-96
2021/01/20 18:37:55;;;;;;;32.65;17.40;;;;;;;;;;4976714;28;20265;-96
2021/01/20 18:40:21;;;;;;;36.78;25.45;;;;;;;;;;4971983;28;20226;-96
2021/01/20 18:42:47;;;;;;;58.60;35.47;;;;;;;;;;4976665;28;20206;-96
2021/01/20 18:45:13;;;;;;;81.60;46.92;;;;;;;;;;4978372;28;20264;-96
2021/01/20 18:47:40;;;;;;;88.22;49.97;;;;;;;;;;4981816;28;20217;-96
2021/01/20 18:50:07;;;;;;;74.22;43.72;;;;;;;;;;4976474;28;20236;-95
2021/01/20 18:52:33;;;;;;;70.53;40.75;;;;;;;;;;4980301;28;20237;-96
2021/01/20 18:54:59;;;;;;;79.38;44.25;;;;;;;;;;4969985;28;20244;-96
2021/01/20 18:57:25;;;;;;;86.85;45.20;;;;;;;;;;4981681;28;20237;-93
2021/01/20 18:59:51;;;;;;;65.50;40.13;;;;;;;;;;4975377;28;20198;-92